createdAt,value
2023-05-12T00:00:06.522Z,13.22
2023-05-12T00:01:06.474Z,13.18
2023-05-12T00:02:06.454Z,13.15
2023-05-12T00:03:06.607Z,13.01
2023-05-12T00:04:06.569Z,13.00
2023-05-12T00:05:06.458Z,13.00
2023-05-12T00:06:06.438Z,12.94
2023-05-12T00:07:06.399Z,12.93
2023-05-12T00:08:06.400Z,13.13
2023-05-12T00:09:06.386Z,13.09
2023-05-12T00:10:06.419Z,13.16
2023-05-12T00:11:06.362Z,13.19
2023-05-12T00:12:06.351Z,13.19
2023-05-12T00:13:06.351Z,13.19
2023-05-12T00:14:06.437Z,13.25
2023-05-12T00:15:06.368Z,13.35
2023-05-12T00:16:06.364Z,13.42
2023-05-12T00:17:06.325Z,13.44
2023-05-12T00:18:06.353Z,13.44
2023-05-12T00:19:06.455Z,13.49
2023-05-12T00:20:06.293Z,13.50
2023-05-12T00:21:06.252Z,13.47
2023-05-12T00:22:06.263Z,13.44
2023-05-12T00:23:06.237Z,13.46
2023-05-12T00:24:06.237Z,13.50
2023-05-12T00:25:06.169Z,13.52
2023-05-12T00:26:06.160Z,13.53
2023-05-12T00:27:06.183Z,13.52
2023-05-12T00:28:06.196Z,13.53
2023-05-12T00:29:06.185Z,13.53
2023-05-12T00:30:06.143Z,13.52
2023-05-12T00:31:06.194Z,13.50
2023-05-12T00:32:06.112Z,13.49
2023-05-12T00:33:06.284Z,13.47
2023-05-12T00:34:06.103Z,13.47
2023-05-12T00:35:06.076Z,13.47
2023-05-12T00:36:06.073Z,13.41
2023-05-12T00:37:06.066Z,13.39
2023-05-12T00:38:06.083Z,13.42
2023-05-12T00:39:06.058Z,13.42
2023-05-12T00:40:06.053Z,13.46
2023-05-12T00:41:06.023Z,13.46
2023-05-12T00:42:06.046Z,13.44
2023-05-12T00:43:06.038Z,13.44
2023-05-12T00:44:05.978Z,13.39
2023-05-12T00:45:05.993Z,13.38
2023-05-12T00:46:06.008Z,13.19
2023-05-12T00:47:05.985Z,13.19
2023-05-12T00:48:05.957Z,13.13
2023-05-12T00:49:05.948Z,13.25
2023-05-12T00:50:05.923Z,13.35
2023-05-12T00:51:05.883Z,13.37
2023-05-12T00:52:05.933Z,13.35
2023-05-12T00:53:05.894Z,13.31
2023-05-12T00:54:05.882Z,13.30
2023-05-12T00:55:05.873Z,13.23
2023-05-12T00:56:05.881Z,13.25
2023-05-12T00:57:05.857Z,13.23
2023-05-12T00:58:05.836Z,13.20
2023-05-12T00:59:05.826Z,13.20
2023-05-12T01:00:05.803Z,13.16
2023-05-12T01:01:05.869Z,13.18
2023-05-12T01:02:05.854Z,13.20
2023-05-12T01:03:05.959Z,13.19
2023-05-12T01:04:05.757Z,13.19
2023-05-12T01:05:05.744Z,13.20
2023-05-12T01:06:05.787Z,13.22
2023-05-12T01:07:05.792Z,13.22
2023-05-12T01:08:05.719Z,13.20
2023-05-12T01:09:05.717Z,13.19
2023-05-12T01:10:05.714Z,12.95
2023-05-12T01:11:05.729Z,12.94
2023-05-12T01:12:05.700Z,12.86
2023-05-12T01:13:05.656Z,12.86
2023-05-12T01:14:05.646Z,13.09
2023-05-12T01:15:05.711Z,13.08
2023-05-12T01:16:05.662Z,12.91
2023-05-12T01:17:05.638Z,13.08
2023-05-12T01:18:05.716Z,12.85
2023-05-12T01:19:05.638Z,13.05
2023-05-12T01:20:05.624Z,13.11
2023-05-12T01:21:05.586Z,13.13
2023-05-12T01:22:05.588Z,13.16
2023-05-12T01:23:05.565Z,13.15
2023-05-12T01:24:05.525Z,13.09
2023-05-12T01:25:05.575Z,13.09
2023-05-12T01:26:05.617Z,13.09
2023-05-12T01:27:05.485Z,13.08
2023-05-12T01:28:05.536Z,13.03
2023-05-12T01:29:05.543Z,13.04
2023-05-12T01:30:05.535Z,12.94
2023-05-12T01:31:05.518Z,12.90
2023-05-12T01:32:05.472Z,12.87
2023-05-12T01:33:05.476Z,12.86
2023-05-12T01:34:05.476Z,12.82
2023-05-12T01:35:05.442Z,12.79
2023-05-12T01:36:05.398Z,12.68
2023-05-12T01:37:05.391Z,12.67
2023-05-12T01:38:05.408Z,12.65
2023-05-12T01:39:05.416Z,12.61
2023-05-12T01:40:05.352Z,12.61
2023-05-12T01:41:05.344Z,12.60
2023-05-12T01:42:05.347Z,12.50
2023-05-12T01:43:05.364Z,12.47
2023-05-12T01:44:05.328Z,12.45
2023-05-12T01:45:05.315Z,12.42
2023-05-12T01:46:05.325Z,12.37
2023-05-12T01:47:05.285Z,12.32
2023-05-12T01:48:05.327Z,12.31
2023-05-12T01:49:06.100Z,12.39
2023-05-12T01:50:05.256Z,12.39
2023-05-12T01:51:05.244Z,12.54
2023-05-12T01:52:05.228Z,12.43
2023-05-12T01:53:05.252Z,12.37
2023-05-12T01:54:05.245Z,12.31
2023-05-12T01:55:05.191Z,12.29
2023-05-12T01:56:05.167Z,12.32
2023-05-12T01:57:05.185Z,12.27
2023-05-12T01:58:05.174Z,12.45
2023-05-12T01:59:05.269Z,12.45
2023-05-12T02:00:05.137Z,12.46
2023-05-12T02:01:05.130Z,12.46
2023-05-12T02:02:05.153Z,12.46
2023-05-12T02:03:05.182Z,12.42
2023-05-12T02:04:05.206Z,12.42
2023-05-12T02:05:05.116Z,12.46
2023-05-12T02:06:05.067Z,12.47
2023-05-12T02:07:05.108Z,12.45
2023-05-12T02:08:05.043Z,12.39
2023-05-12T02:09:05.039Z,12.36
2023-05-12T02:10:05.044Z,12.37
2023-05-12T02:11:05.062Z,12.36
2023-05-12T02:12:05.045Z,12.36
2023-05-12T02:13:04.997Z,12.39
2023-05-12T02:14:04.994Z,12.42
2023-05-12T02:15:04.961Z,12.42
2023-05-12T02:16:05.068Z,12.43
2023-05-12T02:17:04.936Z,12.43
2023-05-12T02:18:04.962Z,12.45
2023-05-12T02:19:05.078Z,12.43
2023-05-12T02:20:04.895Z,12.43
2023-05-12T02:21:04.931Z,12.43
2023-05-12T02:22:04.883Z,12.43
2023-05-12T02:23:04.889Z,12.35
2023-05-12T02:24:04.862Z,12.42
2023-05-12T02:25:04.876Z,12.21
2023-05-12T02:26:04.855Z,12.31
2023-05-12T02:27:04.800Z,12.31
2023-05-12T02:28:04.820Z,12.28
2023-05-12T02:29:04.791Z,12.13
2023-05-12T02:30:04.826Z,12.17
2023-05-12T02:31:04.773Z,12.17
2023-05-12T02:32:04.888Z,12.12
2023-05-12T02:33:04.814Z,12.07
2023-05-12T02:34:06.621Z,12.09
2023-05-12T02:35:04.794Z,12.00
2023-05-12T02:36:04.739Z,11.90
2023-05-12T02:37:04.731Z,12.09
2023-05-12T02:38:04.698Z,12.06
2023-05-12T02:39:04.737Z,12.03
2023-05-12T02:40:04.724Z,11.97
2023-05-12T02:41:04.703Z,11.88
2023-05-12T02:42:04.645Z,11.87
2023-05-12T02:43:04.624Z,11.86
2023-05-12T02:44:04.665Z,11.86
2023-05-12T02:45:04.621Z,11.80
2023-05-12T02:46:04.678Z,11.78
2023-05-12T02:47:04.611Z,11.72
2023-05-12T02:48:04.650Z,11.68
2023-05-12T02:49:04.629Z,11.65
2023-05-12T02:50:04.567Z,11.59
2023-05-12T02:51:04.563Z,11.51
2023-05-12T02:52:04.547Z,11.36
2023-05-12T02:53:04.533Z,11.33
2023-05-12T02:54:04.584Z,11.33
2023-05-12T02:55:04.507Z,11.32
2023-05-12T02:56:04.488Z,11.33
2023-05-12T02:57:04.480Z,11.47
2023-05-12T02:58:04.508Z,11.47
2023-05-12T02:59:04.461Z,11.41
2023-05-12T03:00:04.467Z,11.45
2023-05-12T03:01:10.866Z,11.41
2023-05-12T03:02:05.606Z,11.41
2023-05-12T03:03:04.525Z,11.41
2023-05-12T03:04:04.403Z,11.37
2023-05-12T03:05:04.404Z,11.23
2023-05-12T03:06:04.384Z,11.37
2023-05-12T03:07:04.403Z,11.35
2023-05-12T03:08:04.415Z,11.32
2023-05-12T03:09:04.332Z,11.27
2023-05-12T03:10:04.346Z,11.26
2023-05-12T03:11:04.348Z,11.23
2023-05-12T03:12:04.365Z,11.18
2023-05-12T03:13:04.304Z,10.97
2023-05-12T03:14:04.316Z,11.04
2023-05-12T03:15:04.276Z,10.92
2023-05-12T03:16:04.310Z,10.89
2023-05-12T03:17:04.345Z,11.07
2023-05-12T03:18:04.311Z,11.02
2023-05-12T03:19:04.268Z,10.76
2023-05-12T03:20:04.230Z,10.82
2023-05-12T03:21:04.234Z,10.68
2023-05-12T03:22:04.197Z,10.71
2023-05-12T03:23:04.178Z,10.89
2023-05-12T03:24:04.168Z,10.87
2023-05-12T03:25:04.163Z,10.87
2023-05-12T03:26:04.203Z,10.84
2023-05-12T03:27:04.178Z,10.82
2023-05-12T03:28:04.148Z,10.84
2023-05-12T03:29:04.142Z,10.84
2023-05-12T03:30:04.142Z,10.84
2023-05-12T03:31:04.206Z,10.82
2023-05-12T03:32:04.108Z,10.89
2023-05-12T03:33:04.133Z,10.71
2023-05-12T03:34:04.089Z,10.72
2023-05-12T03:35:04.103Z,10.87
2023-05-12T03:36:04.049Z,10.90
2023-05-12T03:37:04.045Z,10.87
2023-05-12T03:38:04.052Z,10.82
2023-05-12T03:39:04.000Z,10.78
2023-05-12T03:40:04.046Z,10.74
2023-05-12T03:41:03.992Z,10.71
2023-05-12T03:42:03.987Z,10.46
2023-05-12T03:43:03.986Z,10.63
2023-05-12T03:44:03.959Z,10.63
2023-05-12T03:45:03.987Z,10.68
2023-05-12T03:46:04.149Z,10.71
2023-05-12T03:47:04.025Z,10.72
2023-05-12T03:48:03.953Z,10.72
2023-05-12T03:49:04.032Z,10.74
2023-05-12T03:50:03.904Z,10.74
2023-05-12T03:51:03.857Z,10.72
2023-05-12T03:52:03.861Z,10.71
2023-05-12T03:53:03.856Z,10.71
2023-05-12T03:54:03.865Z,10.69
2023-05-12T03:55:03.819Z,10.74
2023-05-12T03:56:03.833Z,10.78
2023-05-12T03:57:03.810Z,10.81
2023-05-12T03:58:03.848Z,10.79
2023-05-12T03:59:03.804Z,10.82
2023-05-12T04:00:03.782Z,10.92
2023-05-12T04:01:03.749Z,10.97
2023-05-12T04:02:03.800Z,11.00
2023-05-12T04:03:03.831Z,11.05
2023-05-12T04:04:03.811Z,11.10
2023-05-12T04:05:03.717Z,11.11
2023-05-12T04:06:03.716Z,11.15
2023-05-12T04:07:03.712Z,11.18
2023-05-12T04:08:03.744Z,11.23
2023-05-12T04:09:03.663Z,11.26
2023-05-12T04:10:03.687Z,11.30
2023-05-12T04:11:03.679Z,11.33
2023-05-12T04:12:03.685Z,11.36
2023-05-12T04:13:03.691Z,11.50
2023-05-12T04:14:03.617Z,11.78
2023-05-12T04:15:03.617Z,12.20
2023-05-12T04:16:03.626Z,12.64
2023-05-12T04:17:03.636Z,12.97
2023-05-12T04:18:03.608Z,13.35
2023-05-12T04:19:03.740Z,13.54
2023-05-12T04:20:03.560Z,13.81
2023-05-12T04:21:03.587Z,13.86
2023-05-12T04:22:03.567Z,13.93
2023-05-12T04:23:03.539Z,14.20
2023-05-12T04:24:03.492Z,14.33
2023-05-12T04:25:03.480Z,14.35
2023-05-12T04:26:03.503Z,14.47
2023-05-12T04:27:03.483Z,14.43
2023-05-12T04:28:03.467Z,14.59
2023-05-12T04:29:03.471Z,14.50
2023-05-12T04:30:03.464Z,14.54
2023-05-12T04:31:03.476Z,14.51
2023-05-12T04:32:03.498Z,14.50
2023-05-12T04:33:03.479Z,14.44
2023-05-12T04:34:03.431Z,14.53
2023-05-12T04:35:03.393Z,14.66
2023-05-12T04:36:03.404Z,14.72
2023-05-12T04:37:03.368Z,14.94
2023-05-12T04:38:03.469Z,14.94
2023-05-12T04:39:03.347Z,14.92
2023-05-12T04:40:03.377Z,15.07
2023-05-12T04:41:03.356Z,15.06
2023-05-12T04:42:03.297Z,15.11
2023-05-12T04:43:03.302Z,15.29
2023-05-12T04:44:03.301Z,15.14
2023-05-12T04:45:03.309Z,15.21
2023-05-12T04:46:03.283Z,15.29
2023-05-12T04:47:03.254Z,15.28
2023-05-12T04:48:03.296Z,15.21
2023-05-12T04:49:03.223Z,15.33
2023-05-12T04:50:03.253Z,15.37
2023-05-12T04:51:03.201Z,15.40
2023-05-12T04:52:03.203Z,15.19
2023-05-12T04:53:03.164Z,15.36
2023-05-12T04:54:03.155Z,15.42
2023-05-12T04:55:03.184Z,15.68
2023-05-12T04:56:03.150Z,15.65
2023-05-12T04:57:03.137Z,15.86
2023-05-12T04:58:03.135Z,15.73
2023-05-12T04:59:03.153Z,15.58
2023-05-12T05:00:03.147Z,15.57
2023-05-12T05:01:03.100Z,15.51
2023-05-12T05:02:03.083Z,15.61
2023-05-12T05:03:03.117Z,15.49
2023-05-12T05:04:03.121Z,15.55
2023-05-12T05:05:03.024Z,15.92
2023-05-12T05:06:03.064Z,16.24
2023-05-12T05:07:03.036Z,16.17
2023-05-12T05:08:03.084Z,16.41
2023-05-12T05:09:03.023Z,16.42
2023-05-12T05:10:03.009Z,16.46
2023-05-12T05:11:02.982Z,16.38
2023-05-12T05:12:02.971Z,16.35
2023-05-12T05:13:03.004Z,16.51
2023-05-12T05:14:02.944Z,16.23
2023-05-12T05:15:02.949Z,16.29
2023-05-12T05:16:02.977Z,16.49
2023-05-12T05:17:02.902Z,16.36
2023-05-12T05:18:03.019Z,16.26
2023-05-12T05:19:06.500Z,16.35
2023-05-12T05:20:09.492Z,16.79
2023-05-12T05:21:03.894Z,17.20
2023-05-12T05:22:02.831Z,17.42
2023-05-12T05:23:02.863Z,17.52
2023-05-12T05:24:02.845Z,17.59
2023-05-12T05:25:02.850Z,17.31
2023-05-12T05:26:02.827Z,17.26
2023-05-12T05:27:02.821Z,17.24
2023-05-12T05:28:02.830Z,17.26
2023-05-12T05:29:02.784Z,17.27
2023-05-12T05:30:02.779Z,17.04
2023-05-12T05:31:02.766Z,17.45
2023-05-12T05:32:02.782Z,17.59
2023-05-12T05:33:02.905Z,17.85
2023-05-12T05:34:02.792Z,17.87
2023-05-12T05:35:02.693Z,17.98
2023-05-12T05:36:02.728Z,17.80
2023-05-12T05:37:02.745Z,17.86
2023-05-12T05:38:02.690Z,17.94
2023-05-12T05:39:02.661Z,18.01
2023-05-12T05:40:02.652Z,17.90
2023-05-12T05:41:02.650Z,17.48
2023-05-12T05:42:02.678Z,17.27
2023-05-12T05:43:02.646Z,17.34
2023-05-12T05:44:02.643Z,17.41
2023-05-12T05:45:02.627Z,17.48
2023-05-12T05:46:02.622Z,17.54
2023-05-12T05:47:02.665Z,17.74
2023-05-12T05:48:02.578Z,18.15
2023-05-12T05:49:02.544Z,18.13
2023-05-12T05:50:02.574Z,17.85
2023-05-12T05:51:02.555Z,18.13
2023-05-12T05:52:02.502Z,18.07
2023-05-12T05:53:02.508Z,18.59
2023-05-12T05:54:02.486Z,18.38
2023-05-12T05:55:02.499Z,18.25
2023-05-12T05:56:02.520Z,18.01
2023-05-12T05:57:02.461Z,17.89
2023-05-12T05:58:02.493Z,17.86
2023-05-12T05:59:02.453Z,18.05
2023-05-12T06:00:02.458Z,18.26
2023-05-12T06:01:02.465Z,18.23
2023-05-12T06:02:02.432Z,18.33
2023-05-12T06:03:02.462Z,18.31
2023-05-12T06:04:02.573Z,18.28
2023-05-12T06:05:02.401Z,18.07
2023-05-12T06:06:02.390Z,17.33
2023-05-12T06:07:02.355Z,17.48
2023-05-12T06:08:02.352Z,17.65
2023-05-12T06:09:02.349Z,17.67
2023-05-12T06:10:02.352Z,18.10
2023-05-12T06:11:02.301Z,18.43
2023-05-12T06:12:02.300Z,18.68
2023-05-12T06:13:02.291Z,18.37
2023-05-12T06:14:02.268Z,18.18
2023-05-12T06:15:02.288Z,17.95
2023-05-12T06:16:02.272Z,18.03
2023-05-12T06:17:02.315Z,18.23
2023-05-12T06:18:02.310Z,18.05
2023-05-12T06:19:02.324Z,18.01
2023-05-12T06:20:02.231Z,18.29
2023-05-12T06:21:02.156Z,18.65
2023-05-12T06:22:02.177Z,18.73
2023-05-12T06:23:02.166Z,18.95
2023-05-12T06:24:02.202Z,19.56
2023-05-12T06:25:02.147Z,19.44
2023-05-12T06:26:02.137Z,19.00
2023-05-12T06:27:02.148Z,18.92
2023-05-12T06:28:02.117Z,19.04
2023-05-12T06:29:02.151Z,19.33
2023-05-12T06:30:02.105Z,19.26
2023-05-12T06:31:02.090Z,19.12
2023-05-12T06:32:02.156Z,19.22
2023-05-12T06:33:02.113Z,19.34
2023-05-12T06:34:02.060Z,19.22
2023-05-12T06:35:02.018Z,18.70
2023-05-12T06:36:02.038Z,18.73
2023-05-12T06:37:02.011Z,18.93
2023-05-12T06:38:02.030Z,19.29
2023-05-12T06:39:02.050Z,19.58
2023-05-12T06:40:01.988Z,19.55
2023-05-12T06:41:01.972Z,19.18
2023-05-12T06:42:01.948Z,19.19
2023-05-12T06:43:01.952Z,19.16
2023-05-12T06:44:01.921Z,19.15
2023-05-12T06:45:01.952Z,19.66
2023-05-12T06:46:01.921Z,19.41
2023-05-12T06:47:01.872Z,19.67
2023-05-12T06:48:01.979Z,19.67
2023-05-12T06:49:01.878Z,19.62
2023-05-12T06:50:01.857Z,19.66
2023-05-12T06:51:01.845Z,19.84
2023-05-12T06:52:01.881Z,20.07
2023-05-12T06:53:01.897Z,20.43
2023-05-12T06:54:01.840Z,20.66
2023-05-12T06:55:01.814Z,20.40
2023-05-12T06:56:01.806Z,20.59
2023-05-12T06:57:01.832Z,20.51
2023-05-12T06:58:01.800Z,20.13
2023-05-12T06:59:01.752Z,20.06
2023-05-12T07:00:01.761Z,20.22
2023-05-12T07:01:01.773Z,20.06
2023-05-12T07:02:01.862Z,20.11
2023-05-12T07:03:01.800Z,20.47
2023-05-12T07:04:01.774Z,20.95
2023-05-12T07:05:01.679Z,20.48
2023-05-12T07:06:01.772Z,20.41
2023-05-12T07:07:01.716Z,20.11
2023-05-12T07:08:01.668Z,20.18
2023-05-12T07:09:01.694Z,19.91
2023-05-12T07:10:01.644Z,19.67
2023-05-12T07:11:01.697Z,19.88
2023-05-12T07:12:01.621Z,19.96
2023-05-12T07:13:01.615Z,20.00
2023-05-12T07:14:01.579Z,19.79
2023-05-12T07:15:01.590Z,19.58
2023-05-12T07:16:01.675Z,19.86
2023-05-12T07:17:01.576Z,20.00
2023-05-12T07:18:01.558Z,19.91
2023-05-12T07:19:01.610Z,20.11
2023-05-12T07:20:01.521Z,20.32
2023-05-12T07:21:01.556Z,20.10
2023-05-12T07:22:01.508Z,19.86
2023-05-12T07:23:01.490Z,19.76
2023-05-12T07:24:01.470Z,20.26
2023-05-12T07:25:01.510Z,20.41
2023-05-12T07:26:01.473Z,20.44
2023-05-12T07:27:01.442Z,20.37
2023-05-12T07:28:01.447Z,20.69
2023-05-12T07:29:01.486Z,20.69
2023-05-12T07:30:01.427Z,20.80
2023-05-12T07:31:01.444Z,20.93
2023-05-12T07:32:01.381Z,21.07
2023-05-12T07:33:01.485Z,20.85
2023-05-12T07:34:01.385Z,21.05
2023-05-12T07:35:01.411Z,21.09
2023-05-12T07:36:01.348Z,20.95
2023-05-12T07:37:01.306Z,20.66
2023-05-12T07:38:01.312Z,21.25
2023-05-12T07:39:01.353Z,21.51
2023-05-12T07:40:01.333Z,21.72
2023-05-12T07:41:01.303Z,21.75
2023-05-12T07:42:01.285Z,22.22
2023-05-12T07:43:01.314Z,22.47
2023-05-12T07:44:01.271Z,21.98
2023-05-12T07:45:01.252Z,21.99
2023-05-12T07:46:01.229Z,21.82
2023-05-12T07:47:01.203Z,21.73
2023-05-12T07:48:01.318Z,21.52
2023-05-12T07:49:01.229Z,21.50
2023-05-12T07:50:01.215Z,21.83
2023-05-12T07:51:01.193Z,21.61
2023-05-12T07:52:01.165Z,21.58
2023-05-12T07:53:01.237Z,21.52
2023-05-12T07:54:01.163Z,21.52
2023-05-12T07:55:01.122Z,21.96
2023-05-12T07:56:01.169Z,22.15
2023-05-12T07:57:01.114Z,21.79
2023-05-12T07:58:01.129Z,22.26
2023-05-12T07:59:01.116Z,22.10
2023-05-12T08:00:01.083Z,21.73
2023-05-12T08:01:01.093Z,22.02
2023-05-12T08:02:01.117Z,22.44
2023-05-12T08:03:01.358Z,22.54
2023-05-12T08:04:01.159Z,22.59
2023-05-12T08:05:01.067Z,22.22
2023-05-12T08:06:01.085Z,22.07
2023-05-12T08:07:01.083Z,22.25
2023-05-12T08:08:00.990Z,21.93
2023-05-12T08:09:01.006Z,21.83
2023-05-12T08:10:00.964Z,21.69
2023-05-12T08:11:00.961Z,21.73
2023-05-12T08:12:00.977Z,22.15
2023-05-12T08:13:00.959Z,22.94
2023-05-12T08:14:00.932Z,23.37
2023-05-12T08:15:00.918Z,23.03
2023-05-12T08:16:00.948Z,22.63
2023-05-12T08:17:00.968Z,22.25
2023-05-12T08:18:00.988Z,22.47
2023-05-12T08:19:00.926Z,22.51
2023-05-12T08:20:00.896Z,22.30
2023-05-12T08:21:00.897Z,22.29
2023-05-12T08:22:00.833Z,22.17
2023-05-12T08:23:01.092Z,21.93
2023-05-12T08:24:00.807Z,22.04
2023-05-12T08:25:00.849Z,22.23
2023-05-12T08:26:00.856Z,22.41
2023-05-12T08:27:00.788Z,22.02
2023-05-12T08:28:00.775Z,21.77
2023-05-12T08:29:00.743Z,21.99
2023-05-12T08:30:00.741Z,21.93
2023-05-12T08:31:03.324Z,22.00
2023-05-12T08:32:00.771Z,21.99
2023-05-12T08:33:00.749Z,22.20
2023-05-12T08:34:09.749Z,22.66
2023-05-12T08:35:01.761Z,22.50
2023-05-12T08:36:00.742Z,22.28
2023-05-12T08:37:00.656Z,22.10
2023-05-12T08:38:00.642Z,22.36
2023-05-12T08:39:00.673Z,22.47
2023-05-12T08:40:00.689Z,22.55
2023-05-12T08:41:00.641Z,22.81
2023-05-12T08:42:00.594Z,23.12
2023-05-12T08:43:01.854Z,23.27
2023-05-12T08:44:00.624Z,23.09
2023-05-12T08:45:00.624Z,23.18
2023-05-12T08:46:00.586Z,23.40
2023-05-12T08:47:00.627Z,23.10
2023-05-12T08:48:00.658Z,22.98
2023-05-12T08:49:00.607Z,22.62
2023-05-12T08:50:00.516Z,22.43
2023-05-12T08:51:00.531Z,22.41
2023-05-12T08:52:00.531Z,22.48
2023-05-12T08:53:00.495Z,22.66
2023-05-12T08:54:00.540Z,22.99
2023-05-12T08:55:01.030Z,22.88
2023-05-12T08:58:00.502Z,23.17
2023-05-12T08:59:00.481Z,22.91
2023-05-12T09:00:00.438Z,22.96
2023-05-12T09:01:00.448Z,23.00
2023-05-12T09:02:00.413Z,23.03
2023-05-12T09:03:00.475Z,22.98
2023-05-12T09:04:00.418Z,23.27
2023-05-12T09:05:00.511Z,23.27
2023-05-12T09:06:00.349Z,23.28
2023-05-12T09:07:00.382Z,23.69
2023-05-12T09:08:00.390Z,23.59
2023-05-12T09:09:00.333Z,23.46
2023-05-12T09:10:00.318Z,23.34
2023-05-12T09:11:00.314Z,23.25
2023-05-12T09:12:00.302Z,23.13
2023-05-12T09:13:00.321Z,23.48
2023-05-12T09:14:00.335Z,23.63
2023-05-12T09:15:00.246Z,24.01
2023-05-12T09:16:00.274Z,23.71
2023-05-12T09:17:00.318Z,23.50
2023-05-12T09:18:00.343Z,23.34
2023-05-12T09:19:00.254Z,23.17
2023-05-12T09:20:00.217Z,23.40
2023-05-12T09:21:00.203Z,23.58
2023-05-12T09:22:00.212Z,23.48
2023-05-12T09:23:00.209Z,23.37
2023-05-12T09:24:00.205Z,23.28
2023-05-12T09:25:00.160Z,22.99
2023-05-12T09:26:00.180Z,23.25
2023-05-12T09:27:00.192Z,23.43
2023-05-12T09:28:00.150Z,23.58
2023-05-12T09:29:00.139Z,23.81
2023-05-12T09:30:00.154Z,23.61
2023-05-12T09:31:00.157Z,23.48
2023-05-12T09:32:00.277Z,23.80
2023-05-12T09:33:00.177Z,24.02
2023-05-12T09:34:00.079Z,24.05
2023-05-12T09:35:00.047Z,23.92
2023-05-12T09:36:00.135Z,23.69
2023-05-12T09:37:00.023Z,23.58
2023-05-12T09:38:00.006Z,23.93
2023-05-12T09:39:00.012Z,23.84
2023-05-12T09:40:00.000Z,23.91
2023-05-12T09:41:00.023Z,23.86
2023-05-12T09:41:59.991Z,24.08
2023-05-12T09:42:59.932Z,24.06
2023-05-12T09:43:59.943Z,23.91
2023-05-12T09:44:59.937Z,23.95
2023-05-12T09:45:59.991Z,23.81
2023-05-12T09:46:59.902Z,24.02
2023-05-12T09:47:59.985Z,24.10
2023-05-12T09:48:59.918Z,24.38
2023-05-12T09:49:59.939Z,24.85
2023-05-12T09:50:59.922Z,24.77
2023-05-12T09:51:59.869Z,24.43
2023-05-12T09:52:59.855Z,24.58
2023-05-12T09:53:59.841Z,24.61
2023-05-12T09:54:59.831Z,24.02
2023-05-12T09:55:59.803Z,24.05
2023-05-12T09:56:59.877Z,23.87
2023-05-12T09:57:59.816Z,24.48
2023-05-12T09:58:59.784Z,24.45
2023-05-12T09:59:59.812Z,24.73
2023-05-12T10:01:21.006Z,24.66
2023-05-12T10:02:00.877Z,24.76
2023-05-12T10:02:59.805Z,24.99
2023-05-12T10:03:59.803Z,24.77
2023-05-12T10:04:59.767Z,24.91
2023-05-12T10:05:59.710Z,24.65
2023-05-12T10:06:59.730Z,24.30
2023-05-12T10:07:59.718Z,23.98
2023-05-12T10:08:59.718Z,24.20
2023-05-12T10:09:59.689Z,24.39
2023-05-12T10:10:59.679Z,24.30
2023-05-12T10:11:59.625Z,24.45
2023-05-12T10:12:59.677Z,24.47
2023-05-12T10:13:59.672Z,24.54
2023-05-12T10:14:59.640Z,24.58
2023-05-12T10:15:59.585Z,24.65
2023-05-12T10:16:59.712Z,24.76
2023-05-12T10:17:59.572Z,24.47
2023-05-12T10:18:59.658Z,24.51
2023-05-12T10:19:59.581Z,24.26
2023-05-12T10:20:59.554Z,24.80
2023-05-12T10:21:59.543Z,24.95
2023-05-12T10:22:59.523Z,24.85
2023-05-12T10:23:59.558Z,24.51
2023-05-12T10:24:59.490Z,24.57
2023-05-12T10:25:59.473Z,24.55
2023-05-12T10:26:59.780Z,24.81
2023-05-12T10:27:59.539Z,25.16
2023-05-12T10:28:59.493Z,25.01
2023-05-12T10:29:59.460Z,24.70
2023-05-12T10:30:59.461Z,24.60
2023-05-12T10:31:59.424Z,24.85
2023-05-12T10:32:59.561Z,24.77
2023-05-12T10:33:59.438Z,24.26
2023-05-12T10:35:00.769Z,23.81
2023-05-12T10:35:59.377Z,23.96
2023-05-12T10:36:59.394Z,24.10
2023-05-12T10:37:59.485Z,24.26
2023-05-12T10:38:59.454Z,24.32
2023-05-12T10:39:59.366Z,24.17
2023-05-12T10:40:59.349Z,24.16
2023-05-12T10:41:59.306Z,24.81
2023-05-12T10:42:59.349Z,25.40
2023-05-12T10:43:59.329Z,25.18
2023-05-12T10:44:59.281Z,25.03
2023-05-12T10:45:59.299Z,25.18
2023-05-12T10:46:59.337Z,25.23
2023-05-12T10:47:59.359Z,25.26
2023-05-12T10:48:59.260Z,25.35
2023-05-12T10:49:59.266Z,25.40
2023-05-12T10:50:59.226Z,25.33
2023-05-12T10:51:59.264Z,25.36
2023-05-12T10:52:59.224Z,25.06
2023-05-12T10:53:59.224Z,24.99
2023-05-12T10:54:59.213Z,25.21
2023-05-12T10:55:59.418Z,24.51
2023-05-12T10:56:59.452Z,24.43
2023-05-12T10:57:59.369Z,24.84
2023-05-12T10:58:59.309Z,25.17
2023-05-12T10:59:59.823Z,25.28
2023-05-12T11:00:59.615Z,24.85
2023-05-12T11:01:59.505Z,24.81
2023-05-12T11:03:04.092Z,25.08
2023-05-12T11:04:00.283Z,25.31
2023-05-12T11:04:59.308Z,24.89
2023-05-12T11:05:59.287Z,24.98
2023-05-12T11:06:59.541Z,25.50
2023-05-12T11:07:59.196Z,25.69
2023-05-12T11:08:59.290Z,25.83
2023-05-12T11:10:01.229Z,25.28
2023-05-12T11:10:59.415Z,24.73
2023-05-12T11:11:59.457Z,25.17
2023-05-12T11:12:58.977Z,25.65
2023-05-12T11:13:58.976Z,25.29
2023-05-12T11:14:59.010Z,25.40
2023-05-12T11:15:59.068Z,25.04
2023-05-12T11:16:58.986Z,24.96
2023-05-12T11:17:58.978Z,24.93
2023-05-12T11:18:58.977Z,25.23
2023-05-12T11:19:58.991Z,24.60
2023-05-12T11:20:58.900Z,24.53
2023-05-12T11:21:58.928Z,24.74
2023-05-12T11:22:58.889Z,24.91
2023-05-12T11:23:58.913Z,24.85
2023-05-12T11:24:58.952Z,24.86
2023-05-12T11:25:58.956Z,24.89
2023-05-12T11:26:58.838Z,24.96
2023-05-12T11:27:58.854Z,25.32
2023-05-12T11:28:58.863Z,25.06
2023-05-12T11:29:58.878Z,25.21
2023-05-12T11:30:58.826Z,25.17
2023-05-12T11:31:58.916Z,24.92
2023-05-12T11:32:58.794Z,25.50
2023-05-12T11:34:10.732Z,25.36
2023-05-12T11:34:59.775Z,25.26
2023-05-12T11:35:58.760Z,25.88
2023-05-12T11:36:58.760Z,25.75
2023-05-12T11:37:58.799Z,25.43
2023-05-12T11:38:58.748Z,25.17
2023-05-12T11:39:58.693Z,24.40
2023-05-12T11:40:58.700Z,24.85
2023-05-12T11:42:09.125Z,25.41
2023-05-12T11:42:59.708Z,25.55
2023-05-12T11:43:58.700Z,25.36
2023-05-12T11:44:58.682Z,25.29
2023-05-12T11:45:58.719Z,25.90
2023-05-12T11:46:58.678Z,26.55
2023-05-12T11:47:59.305Z,26.44
2023-05-12T11:48:58.639Z,26.45
2023-05-12T11:49:58.652Z,26.60
2023-05-12T11:50:58.603Z,26.93
2023-05-12T11:51:58.625Z,27.11
2023-05-12T11:52:58.619Z,26.00
2023-05-12T11:53:58.604Z,25.21
2023-05-12T11:54:58.631Z,25.46
2023-05-12T11:55:58.561Z,24.98
2023-05-12T11:56:58.801Z,24.54
2023-05-12T11:57:58.579Z,25.28
2023-05-12T11:58:58.530Z,25.73
2023-05-12T11:59:58.507Z,25.46
2023-05-12T12:00:58.498Z,25.14
2023-05-12T12:01:58.550Z,25.21
2023-05-12T12:02:58.558Z,24.92
2023-05-12T12:03:58.544Z,25.44
2023-05-12T12:04:58.456Z,25.88
2023-05-12T12:05:58.515Z,25.98
2023-05-12T12:06:58.467Z,26.33
2023-05-12T12:07:58.447Z,27.00
2023-05-12T12:08:58.410Z,26.75
2023-05-12T12:09:58.418Z,25.60
2023-05-12T12:10:58.420Z,24.78
2023-05-12T12:11:58.410Z,24.08
2023-05-12T12:12:58.368Z,23.71
2023-05-12T12:13:58.407Z,23.50
2023-05-12T12:14:58.350Z,23.34
2023-05-12T12:15:58.407Z,23.17
2023-05-12T12:16:58.322Z,23.48
2023-05-12T12:17:59.440Z,24.48
2023-05-12T12:18:58.357Z,25.08
2023-05-12T12:19:58.344Z,25.32
2023-05-12T12:20:58.289Z,25.72
2023-05-12T12:21:58.274Z,25.18
2023-05-12T12:22:58.276Z,24.85
2023-05-12T12:23:58.255Z,24.89
2023-05-12T12:24:58.289Z,24.86
2023-05-12T12:25:58.235Z,24.68
2023-05-12T12:26:58.221Z,24.53
2023-05-12T12:27:58.206Z,24.48
2023-05-12T12:28:58.178Z,24.42
2023-05-12T12:29:58.262Z,24.03
2023-05-12T12:30:58.194Z,23.69
2023-05-12T12:31:58.172Z,23.55
2023-05-12T12:32:58.207Z,23.39
2023-05-12T12:33:58.219Z,23.21
2023-05-12T12:34:58.168Z,23.17
2023-05-12T12:35:58.150Z,23.21
2023-05-12T12:36:58.102Z,23.21
2023-05-12T12:37:58.114Z,23.08
2023-05-12T12:38:58.112Z,22.99
2023-05-12T12:39:58.103Z,23.00
2023-05-12T12:40:58.091Z,23.03
2023-05-12T12:41:58.089Z,23.12
2023-05-12T12:42:58.055Z,23.31
2023-05-12T12:43:58.111Z,23.46
2023-05-12T12:44:58.040Z,23.47
2023-05-12T12:45:58.024Z,23.74
2023-05-12T12:46:58.100Z,24.36
2023-05-12T12:47:58.091Z,25.16
2023-05-12T12:48:58.030Z,26.16
2023-05-12T12:49:57.982Z,26.59
2023-05-12T12:50:57.971Z,26.74
2023-05-12T12:51:57.963Z,26.59
2023-05-12T12:52:58.006Z,25.43
2023-05-12T12:53:57.985Z,25.14